Time;durP1;ratioP1;P1;durP2;ratioP2;P2;SDS_P1;SDS_P2;PMS_P1;PMS_P2;Temp;Humidity;BMP_temperature;BMP_pressure;BME280_temperature;BME280_humidity;BME280_pressure;Samples;Min_cycle;Max_cycle;Signal;HPM_P1;HPM_P2
2024/03/12 17:42:08;;;;;;;18.02;10.63;;;;;;;9.14;46.99;101057.72;4941061;28;20110;-84
2024/03/12 17:44:39;;;;;;;24.35;14.52;;;;;;;9.17;47.83;101054.72;4920295;29;20699;-87
2024/03/12 17:47:09;;;;;;;22.40;12.55;;;;;;;9.22;47.73;101061.59;4920589;29;20500;-85
2024/03/12 17:49:39;;;;;;;20.65;12.45;;;;;;;9.25;47.50;101064.06;4912248;29;20078;-84
2024/03/12 17:52:08;;;;;;;22.27;12.40;;;;;;;9.28;47.61;101065.69;4921877;29;20458;-86
2024/03/12 17:54:38;;;;;;;21.27;12.25;;;;;;;9.28;47.65;101072.03;4919439;29;20110;-86
2024/03/12 17:57:09;;;;;;;17.27;10.25;;;;;;;9.32;47.18;101075.38;4919875;29;20169;-87
2024/03/12 17:59:42;;;;;;;17.65;10.10;;;;;;;9.34;47.06;101077.00;4926848;29;20587;-87
2024/03/12 18:02:12;;;;;;;13.30;7.70;;;;;;;9.34;47.38;101070.66;4916048;29;20518;-87
2024/03/12 18:04:41;;;;;;;12.93;7.43;;;;;;;9.35;47.61;101081.47;4907085;29;20419;-86
2024/03/12 18:07:22;;;;;;;11.50;6.68;;;;;;;9.38;47.10;101084.00;4929911;29;20039;-86
2024/03/12 18:09:52;;;;;;;9.68;6.35;;;;;;;9.36;47.49;101077.75;4925007;29;20046;-86
2024/03/12 18:12:21;;;;;;;8.48;5.22;;;;;;;9.36;47.41;101076.88;4929297;29;20086;-85
2024/03/12 18:14:50;;;;;;;10.05;5.70;;;;;;;9.38;47.41;101084.00;4933141;29;20048;-87
2024/03/12 18:17:20;;;;;;;9.40;5.63;;;;;;;9.35;47.61;101073.28;4919478;29;20108;-86
2024/03/12 18:19:49;;;;;;;8.65;5.80;;;;;;;9.37;47.43;101067.69;4944440;29;20043;-86
2024/03/12 18:22:17;;;;;;;9.70;5.60;;;;;;;9.37;47.81;101073.16;4928098;29;20067;-87
2024/03/12 18:24:45;;;;;;;9.77;5.53;;;;;;;9.36;47.97;101071.41;4922571;29;20133;-85
2024/03/12 18:27:13;;;;;;;9.45;6.03;;;;;;;9.36;47.67;101076.88;4950238;29;20043;-85
2024/03/12 18:29:41;;;;;;;8.90;5.90;;;;;;;9.36;47.71;101072.28;4943885;29;20067;-83
2024/03/12 18:32:15;;;;;;;;;;;;;;;9.12;48.47;101078.81;4928904;29;20040;-83
2024/03/12 18:34:43;;;;;;;8.43;5.30;;;;;;;9.31;47.89;101066.31;4931470;29;19937;-83
2024/03/12 18:37:11;;;;;;;9.55;7.07;;;;;;;9.34;47.85;101066.06;4928655;29;20062;-87
2024/03/12 18:39:40;;;;;;;12.77;7.90;;;;;;;9.34;47.83;101063.34;4926848;29;20039;-87
2024/03/12 18:42:08;;;;;;;13.10;8.00;;;;;;;9.35;47.91;101067.81;4930264;29;20059;-87
2024/03/12 18:44:36;;;;;;;12.15;7.30;;;;;;;9.34;48.26;101060.59;4911265;29;20051;-83
2024/03/12 18:47:05;;;;;;;12.43;7.07;;;;;;;9.33;48.26;101063.47;4938111;29;20060;-84
2024/03/12 18:49:34;;;;;;;11.57;6.63;;;;;;;9.36;48.33;101063.22;4922397;29;20043;-84
2024/03/12 18:52:03;;;;;;;10.60;6.25;;;;;;;9.35;48.36;101064.19;4918810;29;20147;-83
2024/03/12 18:54:31;;;;;;;10.88;6.20;;;;;;;9.35;48.12;101070.53;4906689;29;20075;-84
2024/03/12 18:57:00;;;;;;;9.52;5.68;;;;;;;9.34;48.13;101062.47;4920105;29;20063;-84
2024/03/12 18:59:28;;;;;;;9.18;5.53;;;;;;;9.33;48.05;101053.41;4918810;29;20048;-84
2024/03/12 19:02:04;;;;;;;8.85;5.22;;;;;;;9.35;48.14;101051.41;4919253;29;20123;-84
2024/03/12 19:04:37;;;;;;;8.23;4.82;;;;;;;9.33;48.60;101058.03;4909008;29;20082;-84
2024/03/12 19:07:06;;;;;;;7.70;4.88;;;;;;;9.32;48.21;101053.53;4926783;29;20768;-83
2024/03/12 19:09:34;;;;;;;9.13;5.47;;;;;;;9.32;48.09;101053.53;4920015;29;20050;-84
2024/03/12 19:12:07;;;;;;;9.77;5.50;;;;;;;9.32;48.48;101038.03;4918198;29;20066;-84
2024/03/12 19:14:38;;;;;;;8.15;4.85;;;;;;;9.32;48.21;101039.88;4921285;29;20051;-82
2024/03/12 19:17:09;;;;;;;8.63;5.00;;;;;;;9.29;48.59;101038.25;4920359;29;20083;-83
2024/03/12 19:19:41;;;;;;;8.43;4.77;;;;;;;9.26;48.66;101043.94;4911386;29;20043;-85
2024/03/12 19:22:11;;;;;;;9.25;4.95;;;;;;;9.25;48.25;101034.00;4927602;29;20690;-83
2024/03/12 19:24:39;;;;;;;8.77;5.13;;;;;;;9.26;48.64;101035.75;4919031;29;20040;-83
2024/03/12 19:27:09;;;;;;;9.13;5.50;;;;;;;9.26;48.02;101037.63;4919509;29;20046;-83
2024/03/12 19:29:48;;;;;;;10.30;5.97;;;;;;;9.24;48.42;101031.44;4916111;29;20062;-83
2024/03/12 19:32:16;;;;;;;10.18;5.50;;;;;;;9.23;48.07;101035.16;4912951;29;20064;-83
2024/03/12 19:34:46;;;;;;;9.02;5.55;;;;;;;9.27;48.51;101037.50;4915675;29;20055;-86
2024/03/12 19:37:16;;;;;;;9.95;5.28;;;;;;;9.25;48.36;101030.41;4910234;29;20122;-83
2024/03/12 19:39:44;;;;;;;9.98;6.35;;;;;;;9.22;48.52;101026.09;4915827;29;20405;-83
2024/03/12 19:42:14;;;;;;;10.70;6.18;;;;;;;9.24;48.45;101031.44;4903499;29;20055;-83
2024/03/12 19:44:43;;;;;;;11.38;6.35;;;;;;;9.24;48.50;101031.44;4916849;29;20507;-82
2024/03/12 19:47:12;;;;;;;12.15;7.22;;;;;;;9.21;48.33;101027.06;4914676;29;20059;-83
2024/03/12 19:49:40;;;;;;;13.52;7.65;;;;;;;9.22;48.26;101027.94;4900899;29;20139;-83
2024/03/12 19:52:13;;;;;;;14.23;7.93;;;;;;;9.23;48.84;101021.50;4917947;29;20044;-83
2024/03/12 19:54:42;;;;;;;13.60;7.82;;;;;;;9.19;48.72;101017.25;4916585;29;20059;-85
2024/03/12 19:57:10;;;;;;;13.40;7.93;;;;;;;9.19;48.40;101009.94;4929969;29;20107;-83
2024/03/12 19:59:38;;;;;;;13.73;8.43;;;;;;;9.18;48.82;101012.78;4915787;29;20419;-84
2024/03/12 20:02:07;;;;;;;13.00;7.63;;;;;;;9.19;48.57;101014.53;4922451;29;20059;-84
2024/03/12 20:04:37;;;;;;;19.55;11.43;;;;;;;9.14;48.86;101012.16;4931701;29;20071;-84
2024/03/12 20:07:07;;;;;;;19.50;11.10;;;;;;;9.16;48.86;101006.59;4912929;29;20078;-85
2024/03/12 20:09:37;;;;;;;19.02;11.45;;;;;;;9.15;48.80;101004.84;4920057;29;20448;-84
2024/03/12 20:12:07;;;;;;;25.15;14.10;;;;;;;9.15;48.92;101018.50;4915645;29;20055;-84
2024/03/12 20:14:37;;;;;;;24.90;14.48;;;;;;;9.12;48.73;101007.81;4920879;29;20122;-84
2024/03/12 20:17:07;;;;;;;26.90;15.75;;;;;;;9.12;48.88;101013.28;4930376;29;20087;-85
2024/03/12 20:19:39;;;;;;;17.33;11.70;;;;;;;9.09;48.78;101007.06;4914477;29;20385;-84
2024/03/12 20:22:10;;;;;;;17.15;11.45;;;;;;;9.07;49.25;101005.47;4926769;29;20051;-85
2024/03/12 20:24:40;;;;;;;12.20;8.45;;;;;;;9.05;49.22;101002.84;4919319;29;20055;-84
2024/03/12 20:27:08;;;;;;;10.77;7.40;;;;;;;9.04;49.08;101014.75;4932951;29;20050;-83
2024/03/12 20:29:37;;;;;;;9.20;6.43;;;;;;;9.06;49.01;101007.31;4938523;29;20113;-84
2024/03/12 20:32:07;;;;;;;9.30;5.85;;;;;;;9.05;49.07;101001.97;4925561;29;20063;-84
2024/03/12 20:34:40;;;;;;;10.13;5.90;;;;;;;9.02;49.00;101008.53;4923369;29;20134;-84
2024/03/12 20:37:09;;;;;;;8.85;5.88;;;;;;;9.03;48.97;101003.94;4914228;29;20099;-83
2024/03/12 20:39:39;;;;;;;9.00;5.47;;;;;;;9.02;49.25;101002.19;4935892;29;20063;-84
2024/03/12 20:42:09;;;;;;;8.85;5.10;;;;;;;9.02;49.16;101005.81;4941837;29;20111;-84
2024/03/12 20:44:39;;;;;;;9.13;5.40;;;;;;;9.00;49.40;101007.78;4923358;29;20048;-84
2024/03/12 20:47:10;;;;;;;7.20;4.60;;;;;;;8.99;49.29;101006.06;4922661;29;20046;-84
2024/03/12 20:49:41;;;;;;;8.07;4.88;;;;;;;8.98;49.33;101000.72;4945664;28;20055;-84
2024/03/12 20:52:11;;;;;;;8.32;4.78;;;;;;;8.97;49.00;101005.31;4933520;29;20062;-84
2024/03/12 20:54:39;;;;;;;7.57;4.50;;;;;;;8.98;49.45;101003.44;4918464;29;20067;-83
2024/03/12 20:57:11;;;;;;;8.05;4.80;;;;;;;8.98;49.06;101000.72;4920655;29;20039;-83
2024/03/12 20:59:42;;;;;;;7.20;4.37;;;;;;;8.91;49.54;101000.34;4935707;29;20066;-84
2024/03/12 21:02:12;;;;;;;9.75;5.10;;;;;;;8.96;49.26;100992.66;4909503;29;20090;-83
2024/03/12 21:04:41;;;;;;;8.05;4.78;;;;;;;8.95;49.43;100984.56;4923060;29;20103;-83
2024/03/12 21:07:09;;;;;;;8.93;5.50;;;;;;;8.94;49.80;100982.84;4925117;29;20044;-84
2024/03/12 21:09:38;;;;;;;8.75;5.18;;;;;;;8.94;49.78;100983.69;4927098;29;20115;-83
2024/03/12 21:12:06;;;;;;;10.35;6.35;;;;;;;8.92;49.51;100976.63;4926443;29;20054;-83
2024/03/12 21:14:38;;;;;;;12.32;6.90;;;;;;;8.95;49.56;100979.13;4943345;29;20393;-83
2024/03/12 21:17:06;;;;;;;12.85;7.32;;;;;;;8.94;49.51;100980.09;4941890;29;20044;-84
2024/03/12 21:19:34;;;;;;;12.35;7.13;;;;;;;8.92;50.08;100980.22;4930150;29;20047;-84
2024/03/12 21:22:02;;;;;;;12.40;7.70;;;;;;;8.93;49.77;100989.28;4922645;29;20578;-84
2024/03/12 21:24:33;;;;;;;13.38;7.68;;;;;;;8.94;49.59;100994.63;4918580;29;20091;-85
2024/03/12 21:27:04;;;;;;;13.75;7.72;;;;;;;8.92;49.94;100996.59;4924890;29;20175;-84
2024/03/12 21:29:34;;;;;;;13.45;7.68;;;;;;;8.94;49.90;100993.75;4939101;29;20171;-83
2024/03/12 21:32:03;;;;;;;15.40;8.07;;;;;;;8.94;50.07;100994.63;4922278;29;20135;-84
2024/03/12 21:34:33;;;;;;;11.70;7.38;;;;;;;8.93;49.91;100990.16;4936585;29;20055;-83
2024/03/12 21:37:02;;;;;;;13.45;7.88;;;;;;;8.92;49.92;100985.69;4907979;29;20044;-83
2024/03/12 21:39:30;;;;;;;14.68;7.88;;;;;;;8.90;50.17;100984.94;4923379;29;20044;-84
2024/03/12 21:41:58;;;;;;;13.40;7.43;;;;;;;8.90;50.03;100981.34;4931313;29;20063;-84
2024/03/12 21:44:28;;;;;;;11.30;7.20;;;;;;;8.90;49.96;100979.50;4931993;29;20052;-84
2024/03/12 21:46:56;;;;;;;11.65;7.22;;;;;;;8.89;49.75;100983.22;4932867;29;20051;-84
2024/03/12 21:49:26;;;;;;;11.98;6.65;;;;;;;8.89;49.99;100985.94;4918642;29;20122;-83
2024/03/12 21:51:55;;;;;;;10.52;6.32;;;;;;;8.90;50.10;100987.69;4932261;29;20349;-83
2024/03/12 21:54:24;;;;;;;11.43;6.72;;;;;;;8.88;49.93;100986.94;4915023;29;20074;-83
2024/03/12 21:56:53;;;;;;;11.43;6.30;;;;;;;8.89;49.89;100983.22;4912189;29;20067;-84
2024/03/12 21:59:21;;;;;;;9.55;5.97;;;;;;;8.88;50.45;100977.88;4914704;29;20048;-82
2024/03/12 22:01:49;;;;;;;10.18;5.80;;;;;;;8.86;50.38;100972.53;4915017;29;20050;-84
2024/03/12 22:04:17;;;;;;;8.90;5.32;;;;;;;8.90;49.95;100964.97;4911352;29;20119;-85
2024/03/12 22:06:46;;;;;;;9.63;5.50;;;;;;;8.86;49.95;100963.47;4902343;29;20079;-86
2024/03/12 22:09:16;;;;;;;7.63;4.82;;;;;;;8.84;50.24;100970.88;4918169;29;20556;-85
2024/03/12 22:11:45;;;;;;;8.55;4.95;;;;;;;8.85;50.38;100978.97;4908055;29;20047;-87
2024/03/12 22:14:14;;;;;;;9.48;5.40;;;;;;;8.82;50.02;100971.03;4901017;29;20415;-85
2024/03/12 22:16:42;;;;;;;7.70;4.80;;;;;;;8.84;50.29;100976.34;4914568;29;20039;-85
2024/03/12 22:19:14;;;;;;;7.93;4.68;;;;;;;8.82;50.53;100962.84;4908082;29;20518;-86
2024/03/12 22:21:46;;;;;;;7.88;4.72;;;;;;;8.78;50.58;100958.59;4926774;29;20047;-85
2024/03/12 22:24:22;;;;;;;7.30;4.30;;;;;;;8.79;50.37;100952.16;4912612;29;20382;-86
2024/03/12 22:26:51;;;;;;;7.55;4.25;;;;;;;8.79;50.51;100959.47;4911232;29;20098;-86
2024/03/12 22:29:19;;;;;;;6.63;4.50;;;;;;;8.76;50.60;100959.72;4914186;29;20052;-87
2024/03/12 22:31:48;;;;;;;6.35;3.78;;;;;;;8.75;50.31;100958.00;4916808;29;20044;-85
2024/03/12 22:34:16;;;;;;;6.57;4.25;;;;;;;8.76;50.48;100970.63;4916070;29;20231;-86
2024/03/12 22:36:45;;;;;;;6.80;3.78;;;;;;;8.74;50.40;100957.13;4930514;29;20043;-87
2024/03/12 22:39:14;;;;;;;7.30;4.30;;;;;;;8.70;50.72;100959.22;4912406;29;20052;-85
2024/03/12 22:41:47;;;;;;;6.78;3.90;;;;;;;8.74;50.56;100965.31;4908113;29;20044;-86
2024/03/12 22:44:16;;;;;;;7.00;3.80;;;;;;;8.71;50.37;100960.09;4930401;28;20043;-85
2024/03/12 22:46:45;;;;;;;6.95;3.97;;;;;;;8.69;50.25;100953.88;4902552;29;20463;-86
2024/03/12 22:49:13;;;;;;;6.82;4.05;;;;;;;8.66;50.09;100952.28;4900937;29;20066;-87
2024/03/12 22:51:42;;;;;;;6.07;4.00;;;;;;;8.66;50.55;100957.72;4915016;29;20127;-87
2024/03/12 22:54:11;;;;;;;6.55;4.15;;;;;;;8.67;50.65;100961.31;4919457;29;20407;-85
2024/03/12 22:56:39;;;;;;;6.85;4.30;;;;;;;8.68;50.35;100954.84;4910341;29;20044;-86
2024/03/12 22:59:10;;;;;;;7.10;4.40;;;;;;;8.68;50.75;100949.41;4929152;29;20531;-85
2024/03/12 23:01:39;;;;;;;6.85;4.07;;;;;;;8.66;50.71;100955.00;4927748;29;20070;-88
2024/03/12 23:04:08;;;;;;;7.10;4.15;;;;;;;8.66;50.48;100944.09;4911047;29;20469;-86
2024/03/12 23:06:37;;;;;;;8.00;4.55;;;;;;;8.67;51.15;100936.78;4912845;29;20071;-87
2024/03/12 23:09:07;;;;;;;7.63;4.80;;;;;;;8.65;50.85;100934.16;4905316;29;20132;-87
2024/03/12 23:11:36;;;;;;;8.13;4.30;;;;;;;8.67;50.86;100931.31;4927308;29;20530;-86
2024/03/12 23:14:04;;;;;;;7.85;4.65;;;;;;;8.66;50.78;100944.09;4905435;29;20419;-86
2024/03/12 23:16:34;;;;;;;8.15;4.72;;;;;;;8.69;50.83;100946.56;4909511;29;20044;-87
2024/03/12 23:19:02;;;;;;;8.52;4.57;;;;;;;8.67;50.91;100943.06;4919133;29;20039;-84
2024/03/12 23:21:31;;;;;;;8.43;5.05;;;;;;;8.67;50.85;100950.41;4907167;29;20048;-86
2024/03/12 23:23:59;;;;;;;8.32;5.40;;;;;;;8.67;50.85;100950.41;4902764;29;20412;-88
2024/03/12 23:26:28;;;;;;;8.75;5.10;;;;;;;8.67;50.64;100945.78;4906964;29;20445;-84
2024/03/12 23:28:58;;;;;;;9.02;5.45;;;;;;;8.67;50.66;100943.06;4923513;29;20066;-85
2024/03/12 23:31:26;;;;;;;9.07;5.47;;;;;;;8.67;50.85;100947.69;4912849;29;20405;-84
2024/03/12 23:33:55;;;;;;;9.55;5.53;;;;;;;8.67;51.15;100945.78;4912242;29;20043;-86
2024/03/12 23:36:27;;;;;;;9.82;5.82;;;;;;;8.66;50.64;100935.91;4909362;29;20374;-85
2024/03/12 23:38:55;;;;;;;9.52;5.97;;;;;;;8.64;50.52;100934.28;4914718;29;20059;-87
2024/03/12 23:41:24;;;;;;;9.45;5.72;;;;;;;8.67;51.13;100943.06;4906431;29;20519;-87
2024/03/12 23:43:54;;;;;;;10.65;5.78;;;;;;;8.65;50.70;100941.47;4906100;29;20043;-86
2024/03/12 23:46:22;;;;;;;12.10;6.45;;;;;;;8.65;50.69;100953.25;4907657;29;20522;-85
2024/03/12 23:48:51;;;;;;;10.73;5.70;;;;;;;8.65;50.88;100947.81;4911459;29;20091;-86
2024/03/12 23:51:20;;;;;;;10.07;5.47;;;;;;;8.65;50.79;100947.81;4911904;29;20535;-86
2024/03/12 23:53:48;;;;;;;10.52;6.22;;;;;;;8.63;51.10;100947.03;4915755;29;20067;-86
2024/03/12 23:56:16;;;;;;;11.85;6.35;;;;;;;8.63;51.07;100940.72;4910734;29;20091;-86
2024/03/12 23:58:44;;;;;;;9.63;5.68;;;;;;;8.61;51.17;100945.41;4902349;29;20044;-85
